KCGI/CGI METAR and TAF weather

Enter ICAO airport designator
Station Type Date Time Source
KCGI METAR 2018/07/19 06:53 UTC NOAA

KCGI 190653Z AUTO 00000KT 10SM 22/20 A2996 RMK AO2 SLP142 T02220200 $


Station Type Date Time Source
KCGI Decoded METAR 2018/07/19 06:53 UTC NOAA

CAPE GIRARDEAU REGIONAL, MO, United States (KCGI) 37-14N 089-35W 102M
Jul 19, 2018 - 02:53 AM EDT / 2018.07.19 0653 UTC
Wind: Calm:0
Visibility: 10 mile(s):0
Temperature: 72.0 F (22.2 C)
Dew Point: 68.0 F (20.0 C)
Relative Humidity: 87%
Pressure (altimeter): 29.96 in. Hg (1014 hPa)
ob: KCGI 190653Z AUTO 00000KT 10SM 22/20 A2996 RMK AO2 SLP142 T02220200
cycle: 7

Station Type Date Time Source
KCGI TAF 2018/07/19 06:22 UTC NOAA

TAF KCGI 190520Z 1906/2006 08003KT P6SM BKN200
FM192100 17006KT P6SM VCTS BKN060CB
FM200200 15005KT P6SM SCT250


Example: see airport list